Time;durP1;ratioP1;P1;durP2;ratioP2;P2;SDS_P1;SDS_P2;PMS_P1;PMS_P2;Temp;Humidity;BMP_temperature;BMP_pressure;BME280_temperature;BME280_humidity;BME280_pressure;Samples;Min_cycle;Max_cycle;Signal;HPM_P1;HPM_P2
2023/05/01 00:00:54;;;;;;;10.18;4.20;;;;;;;5.14;100.00;98696.22;15287821;19;20010;-44
2023/05/01 00:06:21;;;;;;;7.57;3.55;;;;;;;5.14;100.00;98690.06;15284025;19;20074;-45
2023/05/01 00:11:46;;;;;;;10.57;5.20;;;;;;;5.13;100.00;98685.69;15284355;19;20018;-45
2023/05/01 00:17:10;;;;;;;8.75;4.18;;;;;;;5.07;100.00;98681.66;15275374;19;20623;-44
2023/05/01 00:22:37;;;;;;;8.63;3.78;;;;;;;5.08;100.00;98672.69;15280304;19;20102;-44
2023/05/01 00:28:02;;;;;;;11.73;3.95;;;;;;;5.09;100.00;98666.38;15284721;19;20018;-45
2023/05/01 00:33:27;;;;;;;4.82;2.53;;;;;;;5.11;100.00;98656.44;15287248;19;20018;-47
2023/05/01 00:38:54;;;;;;;7.28;3.08;;;;;;;5.01;100.00;98653.63;15280470;19;20539;-45
2023/05/01 00:44:19;;;;;;;7.07;2.58;;;;;;;4.89;100.00;98650.06;15285976;19;20380;-45
2023/05/01 00:49:44;;;;;;;6.75;2.55;;;;;;;4.84;100.00;98636.25;15276957;19;20017;-44
2023/05/01 00:55:13;;;;;;;4.97;2.70;;;;;;;4.84;100.00;98630.91;15284516;19;20027;-44
2023/05/01 01:00:38;;;;;;;7.75;3.47;;;;;;;4.82;100.00;98627.50;15281969;19;20027;-50
2023/05/01 01:06:15;;;;;;;7.43;3.58;;;;;;;4.71;100.00;98614.16;15279213;19;20081;-44
2023/05/01 01:11:51;;;;;;;5.65;2.83;;;;;;;4.66;100.00;98616.31;15283744;19;20016;-44
2023/05/01 01:17:23;;;;;;;6.55;3.50;;;;;;;4.53;100.00;98609.25;15280499;19;20014;-44
2023/05/01 01:22:51;;;;;;;4.75;2.72;;;;;;;4.42;100.00;98615.44;15276247;19;20106;-49
2023/05/01 01:28:42;;;;;;;5.30;2.50;;;;;;;4.32;100.00;98604.59;15279549;19;20025;-44
2023/05/01 01:34:16;;;;;;;8.13;2.80;;;;;;;4.32;100.00;98598.44;15281027;19;20538;-44
2023/05/01 01:39:51;;;;;;;7.63;3.20;;;;;;;4.29;100.00;98594.16;15278026;19;20227;-48
2023/05/01 01:45:23;;;;;;;4.32;2.97;;;;;;;4.27;100.00;98585.47;15281996;19;20015;-46
2023/05/01 01:50:51;;;;;;;5.72;2.90;;;;;;;4.25;100.00;98591.84;15281388;19;20496;-46
2023/05/01 01:56:19;;;;;;;6.82;3.50;;;;;;;4.18;100.00;98577.28;15277728;19;20010;-48
2023/05/01 02:01:47;;;;;;;6.00;3.42;;;;;;;4.19;100.00;98569.16;15277538;19;20022;-48
2023/05/01 02:07:16;;;;;;;3.90;2.83;;;;;;;4.18;100.00;98562.13;15276545;19;20085;-48
2023/05/01 02:12:42;;;;;;;5.13;2.90;;;;;;;4.13;100.00;98565.16;15278282;19;20359;-46
2023/05/01 02:18:07;;;;;;;5.25;3.00;;;;;;;4.07;100.00;98556.78;15275294;19;20018;-43
2023/05/01 02:23:36;;;;;;;4.75;3.13;;;;;;;3.98;100.00;98558.34;15273695;19;20013;-43
2023/05/01 02:29:01;;;;;;;7.00;3.25;;;;;;;3.89;100.00;98556.34;15268335;19;20038;-43
2023/05/01 02:34:25;;;;;;;7.20;3.78;;;;;;;3.72;100.00;98546.94;15278509;19;20023;-46
2023/05/01 02:39:53;;;;;;;7.40;3.45;;;;;;;3.69;100.00;98543.56;15275300;19;20015;-47
2023/05/01 02:45:26;;;;;;;7.22;3.83;;;;;;;3.70;100.00;98545.25;15276682;19;20018;-43
2023/05/01 02:50:52;;;;;;;8.95;4.00;;;;;;;3.70;100.00;98534.59;15275521;19;20448;-48
2023/05/01 02:56:20;;;;;;;6.28;4.13;;;;;;;3.72;100.00;98537.16;15268785;19;20082;-49
2023/05/01 03:01:45;;;;;;;7.15;4.03;;;;;;;3.72;100.00;98533.63;15257620;19;20081;-43
2023/05/01 03:07:09;;;;;;;10.32;4.35;;;;;;;3.65;100.00;98528.78;15263145;19;20019;-44
2023/05/01 03:12:37;;;;;;;5.82;4.07;;;;;;;3.60;100.00;98522.94;15265409;19;20007;-44
2023/05/01 03:18:02;;;;;;;8.38;4.30;;;;;;;3.59;100.00;98515.06;15267025;19;20024;-47
2023/05/01 03:23:27;;;;;;;7.82;4.35;;;;;;;3.55;100.00;98503.78;15273960;19;20013;-43
2023/05/01 03:29:01;;;;;;;8.15;4.47;;;;;;;3.57;100.00;98516.97;15281909;19;20022;-48
2023/05/01 03:34:27;;;;;;;6.60;4.50;;;;;;;3.60;100.00;98511.44;15284650;19;20013;-47
2023/05/01 03:39:53;;;;;;;8.30;4.38;;;;;;;3.63;100.00;98501.38;15283735;19;20014;-45
2023/05/01 03:45:40;;;;;;;6.15;4.30;;;;;;;3.62;100.00;98497.03;15286399;19;20019;-46
2023/05/01 03:51:05;;;;;;;5.68;4.28;;;;;;;3.60;100.00;98503.44;15288948;19;20042;-45
2023/05/01 03:56:34;;;;;;;6.47;4.10;;;;;;;3.60;100.00;98492.78;15288448;19;20031;-43
2023/05/01 04:02:02;;;;;;;6.65;4.60;;;;;;;3.57;100.00;98485.88;15285584;19;20097;-49
2023/05/01 04:07:29;;;;;;;6.70;4.38;;;;;;;3.59;100.00;98486.59;15281650;19;20443;-43
2023/05/01 04:12:53;;;;;;;6.63;4.43;;;;;;;3.55;100.00;98493.13;15287515;19;20694;-43
2023/05/01 04:18:21;;;;;;;6.80;4.65;;;;;;;3.59;100.00;98483.09;15283379;19;20015;-44
2023/05/01 04:23:45;;;;;;;6.90;4.75;;;;;;;3.60;100.00;98476.81;15283934;19;20034;-43
2023/05/01 04:29:10;;;;;;;9.27;5.38;;;;;;;3.63;100.00;98476.56;15281334;19;20029;-46
2023/05/01 04:34:37;;;;;;;8.68;5.43;;;;;;;3.65;100.00;98478.16;15285736;19;20018;-44
2023/05/01 04:40:03;;;;;;;9.93;5.47;;;;;;;3.66;100.00;98469.19;15273584;19;20483;-48
2023/05/01 04:45:29;;;;;;;7.82;5.53;;;;;;;3.66;100.00;98476.31;15284069;19;20018;-46
2023/05/01 04:50:57;;;;;;;8.60;5.40;;;;;;;3.73;100.00;98471.38;15284238;19;20018;-48
2023/05/01 04:56:22;;;;;;;9.43;5.75;;;;;;;3.74;100.00;98462.41;15285955;19;20484;-44
2023/05/01 05:01:48;;;;;;;7.30;5.80;;;;;;;3.77;100.00;98475.53;15282882;19;20014;-46
2023/05/01 05:07:16;;;;;;;7.97;5.50;;;;;;;3.82;100.00;98476.03;15280649;19;20022;-44
2023/05/01 05:13:06;;;;;;;7.80;5.30;;;;;;;3.86;100.00;98474.81;15284947;19;20014;-43
2023/05/01 05:18:38;;;;;;;7.30;5.05;;;;;;;3.93;100.00;98473.41;15281069;19;20028;-45
2023/05/01 05:24:05;;;;;;;8.15;5.60;;;;;;;4.01;100.00;98464.78;15281229;19;20023;-44
2023/05/01 05:29:31;;;;;;;6.80;5.20;;;;;;;4.11;100.00;98468.47;15278379;19;20018;-45
2023/05/01 05:34:55;;;;;;;8.43;5.38;;;;;;;4.23;100.00;98463.13;15281887;19;20535;-45
2023/05/01 05:40:23;;;;;;;7.80;5.28;;;;;;;4.36;100.00;98460.34;15278145;19;20054;-45
2023/05/01 05:45:47;;;;;;;8.98;5.70;;;;;;;4.49;100.00;98463.75;15280667;19;20041;-47
2023/05/01 05:51:14;;;;;;;8.95;5.93;;;;;;;4.63;100.00;98463.50;15279827;19;20006;-45
2023/05/01 05:56:42;;;;;;;9.85;5.68;;;;;;;4.76;100.00;98457.19;15276407;19;20033;-48
2023/05/01 06:02:07;;;;;;;9.50;6.10;;;;;;;4.91;100.00;98463.09;15277333;19;20018;-46
2023/05/01 06:07:32;;;;;;;9.23;6.70;;;;;;;5.04;100.00;98449.59;15278257;19;20527;-45
2023/05/01 06:13:00;;;;;;;11.27;6.97;;;;;;;5.20;100.00;98450.03;15278565;19;20074;-46
2023/05/01 06:18:32;;;;;;;11.38;8.13;;;;;;;5.35;100.00;98453.25;15278041;19;20014;-46
2023/05/01 06:23:58;;;;;;;13.07;8.80;;;;;;;5.52;100.00;98443.81;15271705;19;20014;-46
2023/05/01 06:29:31;;;;;;;13.27;9.57;;;;;;;5.69;100.00;98438.91;15259846;19;20120;-46
2023/05/01 06:34:57;;;;;;;14.20;10.10;;;;;;;5.92;100.00;98436.09;15273789;19;20015;-44
2023/05/01 06:40:22;;;;;;;15.18;11.00;;;;;;;6.10;100.00;98431.84;15276462;19;20029;-43
2023/05/01 06:45:50;;;;;;;13.88;11.07;;;;;;;6.37;100.00;98427.75;15273670;19;20074;-46
2023/05/01 06:51:15;;;;;;;15.68;11.40;;;;;;;6.61;100.00;98429.25;15271741;19;20022;-45
2023/05/01 06:56:40;;;;;;;14.25;11.05;;;;;;;6.90;100.00;98413.28;15275295;19;20078;-49
2023/05/01 07:02:07;;;;;;;15.40;10.00;;;;;;;7.23;100.00;98399.63;15280448;19;20086;-45
2023/05/01 07:07:32;;;;;;;12.32;9.75;;;;;;;7.61;100.00;98389.03;15286975;19;20013;-47
2023/05/01 07:12:57;;;;;;;14.18;9.00;;;;;;;7.84;100.00;98394.91;15286399;19;20315;-47
2023/05/01 07:18:24;;;;;;;12.02;8.30;;;;;;;8.12;100.00;98387.75;15283133;19;20017;-47
2023/05/01 07:23:51;;;;;;;11.02;8.15;;;;;;;8.39;100.00;98377.22;15286076;19;20469;-45
2023/05/01 07:29:23;;;;;;;11.25;7.80;;;;;;;8.67;100.00;98378.09;15285684;19;20022;-45
2023/05/01 07:34:51;;;;;;;9.60;7.72;;;;;;;8.99;100.00;98370.56;15286519;19;20023;-44
2023/05/01 07:40:16;;;;;;;11.63;7.60;;;;;;;9.34;100.00;98372.38;15264614;19;20108;-47
2023/05/01 07:45:42;;;;;;;10.80;7.13;;;;;;;9.67;100.00;98377.19;15281686;19;20755;-47
2023/05/01 07:51:13;;;;;;;8.63;5.20;;;;;;;10.06;100.00;98366.00;15281268;19;20018;-46
2023/05/01 07:56:38;;;;;;;8.63;4.83;;;;;;;10.54;100.00;98352.97;15286943;19;20015;-47
2023/05/01 08:02:05;;;;;;;5.13;3.33;;;;;;;10.93;100.00;98346.16;15288834;19;20606;-48
2023/05/01 08:07:33;;;;;;;4.50;3.10;;;;;;;11.41;100.00;98341.84;15284249;19;20015;-47
2023/05/01 08:12:58;;;;;;;4.78;3.15;;;;;;;11.74;100.00;98332.88;15286771;19;20022;-47
2023/05/01 08:18:23;;;;;;;5.43;3.10;;;;;;;12.16;100.00;98331.78;15284839;19;20014;-45
2023/05/01 08:23:51;;;;;;;4.75;2.88;;;;;;;12.52;100.00;98325.06;15280944;19;20025;-44
2023/05/01 08:29:16;;;;;;;5.32;2.58;;;;;;;12.85;100.00;98318.63;15257477;19;20017;-46
2023/05/01 08:34:40;;;;;;;4.43;2.78;;;;;;;13.20;100.00;98316.34;15282449;19;20026;-45
2023/05/01 08:40:09;;;;;;;4.55;2.75;;;;;;;13.56;90.73;98316.63;15277226;19;20082;-47
2023/05/01 08:45:37;;;;;;;4.15;2.67;;;;;;;13.93;98.37;98305.09;15274510;19;20014;-45
2023/05/01 08:51:03;;;;;;;3.50;2.50;;;;;;;14.21;92.78;98299.84;15281851;19;20475;-45
2023/05/01 08:56:32;;;;;;;4.00;2.65;;;;;;;14.43;100.00;98300.75;15278829;19;20014;-49
2023/05/01 09:01:58;;;;;;;4.00;2.60;;;;;;;14.66;79.31;98286.22;15281223;19;20031;-47
2023/05/01 09:07:24;;;;;;;4.30;2.72;;;;;;;14.92;91.12;98282.16;15280601;19;20014;-46
2023/05/01 09:12:59;;;;;;;4.35;2.63;;;;;;;15.22;89.70;98282.03;15281568;19;20471;-47
2023/05/01 09:18:24;;;;;;;3.55;2.40;;;;;;;15.38;95.27;98276.31;15280771;19;20692;-48
2023/05/01 09:23:52;;;;;;;3.55;2.53;;;;;;;15.53;86.67;98278.09;15278803;19;20354;-46
2023/05/01 09:29:46;;;;;;;6.25;2.50;;;;;;;15.60;75.93;98262.69;15272574;19;20843;-46
2023/05/01 09:35:14;;;;;;;4.43;2.70;;;;;;;15.78;79.45;98256.75;15269569;19;20379;-46
2023/05/01 09:40:39;;;;;;;6.18;3.08;;;;;;;15.95;79.33;98249.16;15270023;19;20014;-50
2023/05/01 09:46:09;;;;;;;6.18;2.80;;;;;;;16.09;85.19;98239.22;15266147;19;20022;-46
2023/05/01 09:51:35;;;;;;;4.55;2.45;;;;;;;16.22;76.93;98233.00;15269404;19;20025;-48
2023/05/01 09:57:03;;;;;;;3.28;2.25;;;;;;;16.38;73.41;98236.41;15268590;19;20025;-46
2023/05/01 10:02:40;;;;;;;3.70;2.42;;;;;;;16.57;71.20;98226.66;15270979;19;20014;-51
2023/05/01 10:08:09;;;;;;;2.65;2.05;;;;;;;16.82;71.28;98216.03;15275882;19;20554;-50
2023/05/01 10:13:33;;;;;;;3.42;2.17;;;;;;;17.13;68.10;98219.22;15281178;19;20086;-51
2023/05/01 10:19:02;;;;;;;3.63;2.30;;;;;;;17.22;61.93;98210.66;15274974;19;20456;-53
2023/05/01 10:24:26;;;;;;;4.13;1.80;;;;;;;17.40;65.31;98204.53;15276249;19;20015;-51
2023/05/01 10:30:00;;;;;;;4.18;2.03;;;;;;;17.62;64.92;98206.19;15274599;19;20028;-49
2023/05/01 10:35:34;;;;;;;2.70;1.83;;;;;;;17.76;60.07;98205.13;15271074;19;20014;-47
2023/05/01 10:40:59;;;;;;;2.40;1.75;;;;;;;17.82;56.47;98190.63;15275214;19;20002;-50
2023/05/01 10:46:31;;;;;;;2.28;1.58;;;;;;;17.94;54.02;98184.53;15269759;19;20097;-45
2023/05/01 10:52:10;;;;;;;3.63;1.63;;;;;;;18.04;54.35;98184.13;15271841;19;20595;-48
2023/05/01 10:57:46;;;;;;;3.22;1.30;;;;;;;18.09;49.12;98176.97;15272600;19;20006;-47
2023/05/01 11:03:40;;;;;;;2.33;1.73;;;;;;;18.17;51.41;98171.25;15267718;19;20010;-49
2023/05/01 11:09:38;;;;;;;2.65;1.52;;;;;;;18.38;49.11;98161.09;15269985;19;20025;-46
2023/05/01 11:15:13;;;;;;;3.22;1.60;;;;;;;18.48;47.56;98152.41;15267527;19;20094;-49
2023/05/01 11:20:50;;;;;;;2.05;1.58;;;;;;;18.58;49.38;98135.59;15268139;19;20809;-49
2023/05/01 11:26:18;;;;;;;1.58;1.48;;;;;;;18.83;50.94;98137.50;15268973;19;20015;-48
2023/05/01 11:31:43;;;;;;;2.88;1.77;;;;;;;19.06;48.94;98126.84;15271056;19;20776;-46
2023/05/01 11:37:07;;;;;;;2.45;1.80;;;;;;;19.19;48.70;98122.31;15265175;19;20062;-50
2023/05/01 11:42:35;;;;;;;2.58;1.80;;;;;;;19.31;48.86;98111.47;15269270;19;20473;-48
2023/05/01 11:48:01;;;;;;;2.40;2.17;;;;;;;19.16;51.50;98114.56;15272436;19;20078;-48
2023/05/01 11:53:27;;;;;;;2.60;2.10;;;;;;;19.37;49.88;98121.50;15284003;19;20018;-47
2023/05/01 11:58:56;;;;;;;4.85;1.90;;;;;;;19.39;53.37;98103.00;15282689;19;20006;-48
2023/05/01 12:04:26;;;;;;;2.60;1.92;;;;;;;19.34;51.32;98103.69;15281353;19;20081;-47
2023/05/01 12:09:50;;;;;;;2.58;1.77;;;;;;;19.36;51.52;98098.81;15274933;19;20018;-51
2023/05/01 12:15:18;;;;;;;2.88;1.70;;;;;;;19.17;48.31;98089.75;15282336;19;20066;-48
2023/05/01 12:20:45;;;;;;;2.30;1.80;;;;;;;19.09;50.66;98081.88;15283142;19;20017;-48
2023/05/01 12:26:18;;;;;;;2.22;1.67;;;;;;;19.02;46.84;98092.84;15276015;19;20362;-75
2023/05/01 12:31:53;;;;;;;1.52;1.42;;;;;;;19.00;48.03;98089.50;15287306;19;20401;-76
2023/05/01 12:37:21;;;;;;;3.83;1.85;;;;;;;18.97;47.55;98089.97;15281291;19;20021;-76
2023/05/01 12:42:47;;;;;;;2.65;1.70;;;;;;;19.06;50.38;98082.31;15279653;19;20053;-77
2023/05/01 12:48:16;;;;;;;2.67;1.70;;;;;;;18.97;47.72;98076.31;15284750;19;20016;-77
2023/05/01 12:53:43;;;;;;;1.80;1.52;;;;;;;18.91;50.03;98077.16;15299748;19;20014;-76
2023/05/01 12:59:21;;;;;;;3.45;1.70;;;;;;;18.86;48.82;98071.56;15325529;19;20040;-77
2023/05/01 13:04:50;;;;;;;2.95;1.75;;;;;;;18.70;50.60;98070.25;15330489;19;20013;-76
2023/05/01 13:10:18;;;;;;;2.80;1.88;;;;;;;18.73;51.95;98062.44;15306715;19;20045;-75
2023/05/01 13:15:48;;;;;;;2.95;1.90;;;;;;;18.74;53.22;98061.38;15297311;19;20014;-77
2023/05/01 13:21:17;;;;;;;5.70;2.15;;;;;;;18.59;51.82;98048.03;15289515;19;20018;-76
2023/05/01 13:26:45;;;;;;;4.53;2.08;;;;;;;18.52;53.03;98050.00;15277963;19;20457;-77
2023/05/01 13:32:12;;;;;;;3.20;2.08;;;;;;;18.53;53.22;98054.41;15283299;19;20017;-77
2023/05/01 13:37:42;;;;;;;3.88;2.20;;;;;;;18.52;53.82;98043.72;15298924;19;20065;-75
2023/05/01 13:43:20;;;;;;;3.10;2.13;;;;;;;18.54;53.58;98041.59;15287420;19;20018;-76
2023/05/01 13:48:50;;;;;;;3.35;2.08;;;;;;;18.59;55.30;98044.50;15285119;19;20011;-76
2023/05/01 13:54:21;;;;;;;2.70;2.13;;;;;;;18.51;53.47;98044.78;15288104;19;20014;-77
2023/05/01 13:59:48;;;;;;;2.17;1.98;;;;;;;18.58;55.67;98042.81;15284429;19;20089;-76
2023/05/01 14:05:28;;;;;;;4.03;2.22;;;;;;;18.44;52.42;98032.03;15288517;19;20472;-75
2023/05/01 14:10:56;;;;;;;3.60;2.45;;;;;;;18.37;55.40;98036.69;15318730;19;19998;-75
2023/05/01 14:16:30;;;;;;;3.67;2.65;;;;;;;18.25;55.21;98033.00;15316070;19;20010;-76
2023/05/01 14:21:55;;;;;;;3.70;2.30;;;;;;;18.13;56.65;98028.28;15281814;19;20044;-78
2023/05/01 14:27:30;;;;;;;4.32;2.60;;;;;;;18.05;56.63;98028.50;15275633;19;20014;-76
2023/05/01 14:32:56;;;;;;;4.00;2.70;;;;;;;17.92;59.21;98014.97;15284745;19;20019;-79
2023/05/01 14:38:23;;;;;;;4.57;2.72;;;;;;;17.74;62.30;98021.97;15283920;19;20039;-76
2023/05/01 14:43:52;;;;;;;4.53;2.90;;;;;;;17.61;60.61;98013.84;15276481;19;20035;-75
2023/05/01 14:49:24;;;;;;;3.63;2.90;;;;;;;17.47;64.85;98013.91;15277883;19;20498;-75
2023/05/01 14:54:51;;;;;;;4.43;3.67;;;;;;;17.39;68.05;98020.47;15273685;19;20010;-75
2023/05/01 15:00:21;;;;;;;4.88;3.40;;;;;;;17.32;71.44;98021.53;15274785;19;20507;-77
2023/05/01 15:05:45;;;;;;;6.45;3.30;;;;;;;17.19;70.43;98025.09;15276082;19;20018;-77
2023/05/01 15:11:11;;;;;;;5.05;3.20;;;;;;;16.90;78.58;98028.06;15279101;19;20051;-76
2023/05/01 15:16:38;;;;;;;4.68;3.08;;;;;;;16.78;84.30;98022.47;15279319;19;20006;-76
2023/05/01 15:22:03;;;;;;;4.35;3.22;;;;;;;16.66;85.19;98015.97;15279638;19;20405;-75
2023/05/01 15:27:28;;;;;;;4.70;3.22;;;;;;;16.62;93.70;98021.00;15286156;19;20356;-76
2023/05/01 15:32:57;;;;;;;4.07;3.20;;;;;;;16.49;94.84;98013.69;15284526;19;20013;-76
2023/05/01 15:38:22;;;;;;;4.82;3.50;;;;;;;16.36;94.35;98027.28;15291556;19;20011;-77
2023/05/01 15:43:47;;;;;;;5.78;3.00;;;;;;;16.24;96.80;98018.91;15296193;19;20025;-76
2023/05/01 15:49:14;;;;;;;4.60;3.03;;;;;;;16.10;97.16;98019.94;15300483;19;20031;-79
2023/05/01 15:54:39;;;;;;;3.60;2.80;;;;;;;15.92;93.65;98015.94;15294215;19;20014;-77
2023/05/01 16:00:13;;;;;;;4.38;2.90;;;;;;;15.85;100.00;98015.94;15296442;19;20026;-78
2023/05/01 16:05:41;;;;;;;5.47;4.38;;;;;;;15.78;100.00;98019.63;15289265;19;20037;-78
2023/05/01 16:11:05;;;;;;;5.47;2.80;;;;;;;15.64;100.00;98025.03;15297150;19;20010;-78
2023/05/01 16:16:33;;;;;;;5.47;3.08;;;;;;;15.57;100.00;98035.03;15289915;19;20039;-77
2023/05/01 16:22:00;;;;;;;5.15;3.10;;;;;;;15.49;100.00;98035.19;15293994;19;20017;-76
2023/05/01 16:27:26;;;;;;;5.25;2.92;;;;;;;15.46;100.00;98039.16;15282823;19;20035;-78
2023/05/01 16:32:50;;;;;;;5.15;2.90;;;;;;;15.42;100.00;98040.59;15298052;19;20002;-78
2023/05/01 16:38:18;;;;;;;6.13;3.00;;;;;;;15.40;100.00;98053.56;15297489;19;20010;-78
2023/05/01 16:43:42;;;;;;;3.65;2.80;;;;;;;15.40;100.00;98054.38;15294336;19;20334;-77
2023/05/01 16:49:07;;;;;;;4.28;2.97;;;;;;;15.40;100.00;98062.53;15301696;19;20090;-78
2023/05/01 16:54:35;;;;;;;7.03;3.58;;;;;;;15.34;100.00;98070.63;15298626;19;20050;-79
2023/05/01 17:00:00;;;;;;;5.72;3.15;;;;;;;15.05;100.00;98078.81;15294991;19;20425;-78
2023/05/01 17:05:24;;;;;;;4.82;3.00;;;;;;;14.81;100.00;98090.97;15269144;19;20018;-79
2023/05/01 17:10:52;;;;;;;5.13;2.55;;;;;;;14.48;100.00;98099.59;15302074;19;20002;-82
2023/05/01 17:16:18;;;;;;;2.83;2.50;;;;;;;14.27;100.00;98105.88;15301508;19;20014;-82
2023/05/01 17:21:43;;;;;;;3.72;2.58;;;;;;;14.06;100.00;98114.81;15309305;19;20018;-79
2023/05/01 17:27:11;;;;;;;2.70;2.45;;;;;;;13.91;100.00;98121.09;15297316;19;20074;-79
2023/05/01 17:32:35;;;;;;;3.42;2.30;;;;;;;13.60;100.00;98130.31;15298136;19;20016;-81
2023/05/01 17:37:59;;;;;;;2.90;2.10;;;;;;;13.62;100.00;98125.56;15309733;19;20082;-78
2023/05/01 17:43:28;;;;;;;3.90;2.50;;;;;;;13.61;100.00;98120.31;15294373;19;20026;-79
2023/05/01 17:48:53;;;;;;;4.38;2.50;;;;;;;13.64;100.00;98125.34;15287463;19;20032;-78
2023/05/01 17:54:18;;;;;;;3.35;2.50;;;;;;;13.55;100.00;98120.06;15300797;19;20035;-79
2023/05/01 17:59:46;;;;;;;3.20;2.05;;;;;;;13.37;100.00;98119.53;15343304;19;20039;-81
2023/05/01 18:05:31;;;;;;;3.22;2.20;;;;;;;13.35;100.00;98105.34;15304006;19;20032;-78
2023/05/01 18:10:55;;;;;;;3.15;2.10;;;;;;;13.32;100.00;98111.16;15352822;19;20017;-80
2023/05/01 18:16:24;;;;;;;2.83;1.80;;;;;;;13.26;100.00;98121.69;15314445;19;20014;-80
2023/05/01 18:21:48;;;;;;;2.70;1.75;;;;;;;13.23;100.00;98122.06;15289814;19;20077;-77
2023/05/01 18:27:16;;;;;;;2.55;2.10;;;;;;;13.10;100.00;98127.31;15289019;19;20442;-77
2023/05/01 18:32:43;;;;;;;1.83;1.67;;;;;;;13.07;100.00;98135.78;15295514;19;20034;-79
2023/05/01 18:38:08;;;;;;;2.58;1.70;;;;;;;13.02;100.00;98130.91;15288870;19;20018;-77
2023/05/01 18:43:34;;;;;;;1.90;1.70;;;;;;;13.00;100.00;98132.97;15296194;19;20019;-77
2023/05/01 18:49:02;;;;;;;2.85;1.80;;;;;;;12.84;100.00;98144.78;15302005;19;20021;-79
2023/05/01 18:54:27;;;;;;;2.65;1.88;;;;;;;12.79;100.00;98141.75;15302584;19;20021;-78
2023/05/01 18:59:52;;;;;;;2.25;1.77;;;;;;;12.65;100.00;98159.63;15303531;19;20018;-76
2023/05/01 19:05:20;;;;;;;2.00;1.77;;;;;;;12.57;100.00;98168.63;15300955;19;20010;-79
2023/05/01 19:10:44;;;;;;;1.90;1.55;;;;;;;12.54;100.00;98177.09;15286388;19;20021;-79
2023/05/01 19:16:10;;;;;;;2.13;1.70;;;;;;;12.44;100.00;98181.91;15296376;19;20025;-79
2023/05/01 19:21:38;;;;;;;1.83;1.70;;;;;;;12.42;100.00;98189.34;15297404;19;20098;-78
2023/05/01 19:27:03;;;;;;;2.40;2.10;;;;;;;12.40;100.00;98183.28;15292791;19;20015;-77
2023/05/01 19:32:27;;;;;;;2.75;1.92;;;;;;;12.26;100.00;98191.13;15290124;19;20082;-78
2023/05/01 19:38:00;;;;;;;2.85;1.98;;;;;;;12.24;100.00;98190.47;15289008;19;20077;-76
2023/05/01 19:43:24;;;;;;;4.03;1.92;;;;;;;12.11;100.00;98187.50;15276259;19;20011;-77
2023/05/01 19:48:49;;;;;;;2.50;1.90;;;;;;;12.02;100.00;98190.25;15282751;19;20353;-76
2023/05/01 19:54:16;;;;;;;3.30;2.38;;;;;;;11.97;100.00;98197.16;15285830;19;20031;-76
2023/05/01 19:59:42;;;;;;;3.20;1.95;;;;;;;11.83;100.00;98202.28;15284197;19;20630;-78
2023/05/01 20:05:06;;;;;;;4.40;2.10;;;;;;;11.86;100.00;98203.78;15283039;19;20421;-76
2023/05/01 20:10:33;;;;;;;2.63;2.00;;;;;;;11.89;100.00;98211.53;14783407;19;10000773;-77
2023/05/01 20:15:58;;;;;;;3.83;2.15;;;;;;;11.87;100.00;98208.16;15293819;19;20017;-77
2023/05/01 20:21:23;;;;;;;2.42;2.05;;;;;;;11.83;100.00;98214.91;15300771;19;20134;-77
2023/05/01 20:26:52;;;;;;;2.88;2.22;;;;;;;11.82;100.00;98211.41;15304176;19;20395;-78
2023/05/01 20:32:19;;;;;;;3.25;2.03;;;;;;;11.78;100.00;98209.22;15350387;19;20014;-79
2023/05/01 20:37:43;;;;;;;2.80;2.20;;;;;;;11.73;100.00;98215.16;15346881;19;20034;-78
2023/05/01 20:43:10;;;;;;;2.47;2.00;;;;;;;11.70;100.00;98223.59;15325001;19;20021;-78
2023/05/01 20:48:35;;;;;;;2.38;1.90;;;;;;;11.67;100.00;98227.47;15289782;19;20011;-80
2023/05/01 20:54:01;;;;;;;2.35;2.08;;;;;;;11.60;100.00;98225.63;15293513;19;20045;-77
2023/05/01 20:59:28;;;;;;;3.55;2.30;;;;;;;11.60;100.00;98222.94;15294986;19;20055;-80
2023/05/01 21:04:54;;;;;;;3.05;2.20;;;;;;;11.55;100.00;98220.75;15287643;19;20035;-78
2023/05/01 21:10:20;;;;;;;2.17;1.98;;;;;;;11.56;100.00;98217.06;15293657;19;20015;-77
2023/05/01 21:15:47;;;;;;;3.90;2.05;;;;;;;11.51;100.00;98225.66;15289671;19;20035;-77
2023/05/01 21:21:13;;;;;;;3.05;2.03;;;;;;;11.51;100.00;98224.81;15293284;19;20036;-78
2023/05/01 21:26:39;;;;;;;2.00;1.90;;;;;;;11.43;100.00;98232.94;15295693;19;20038;-78
2023/05/01 21:32:09;;;;;;;2.20;1.98;;;;;;;11.40;100.00;98224.16;15289698;19;20089;-76
2023/05/01 21:37:34;;;;;;;2.40;2.15;;;;;;;11.36;100.00;98230.06;15290758;19;20023;-78
2023/05/01 21:43:01;;;;;;;2.50;2.10;;;;;;;11.34;100.00;98232.94;15297507;19;20082;-77
2023/05/01 21:48:34;;;;;;;3.00;1.90;;;;;;;11.34;100.00;98237.47;15331536;19;20025;-79
2023/05/01 21:54:01;;;;;;;3.25;2.08;;;;;;;11.30;100.00;98242.38;15331021;19;20035;-78
2023/05/01 21:59:26;;;;;;;2.88;2.00;;;;;;;11.30;100.00;98245.09;15299384;19;20014;-77
2023/05/01 22:04:53;;;;;;;2.22;1.90;;;;;;;11.25;100.00;98244.72;15293465;19;20010;-78
2023/05/01 22:10:20;;;;;;;2.70;2.13;;;;;;;11.24;100.00;98254.69;15290021;19;20014;-77
2023/05/01 22:15:47;;;;;;;2.30;2.10;;;;;;;11.23;100.00;98244.09;15293888;19;20017;-79
2023/05/01 22:21:15;;;;;;;3.08;1.95;;;;;;;11.20;100.00;98249.81;15295919;19;20834;-76
2023/05/01 22:26:40;;;;;;;2.60;2.00;;;;;;;11.16;100.00;98252.00;15290398;19;20022;-78
2023/05/01 22:32:11;;;;;;;3.05;2.10;;;;;;;11.14;100.00;98239.69;15291038;19;20090;-78
2023/05/01 22:37:39;;;;;;;2.67;2.10;;;;;;;11.06;100.00;98254.88;15292789;19;20553;-77
2023/05/01 22:43:04;;;;;;;2.83;2.20;;;;;;;11.01;100.00;98246.44;15296370;19;20018;-78
2023/05/01 22:48:30;;;;;;;2.72;2.08;;;;;;;10.97;100.00;98241.53;15296376;19;20050;-79
2023/05/01 22:53:58;;;;;;;3.58;2.13;;;;;;;10.88;100.00;98246.94;15337338;19;20010;-78
2023/05/01 22:59:23;;;;;;;3.17;2.30;;;;;;;10.79;100.00;98243.41;15295384;19;20018;-79
2023/05/01 23:04:47;;;;;;;3.17;2.30;;;;;;;10.66;100.00;98256.50;15290119;19;20015;-78
2023/05/01 23:10:16;;;;;;;2.95;2.15;;;;;;;10.60;100.00;98265.25;15290135;19;20031;-79
2023/05/01 23:15:40;;;;;;;2.40;1.90;;;;;;;10.57;100.00;98266.44;15288297;19;20069;-78
2023/05/01 23:21:06;;;;;;;2.20;2.00;;;;;;;10.50;100.00;98259.19;15289978;19;20045;-78
2023/05/01 23:26:35;;;;;;;3.35;2.20;;;;;;;10.41;100.00;98261.84;15283638;19;20015;-79
2023/05/01 23:32:06;;;;;;;2.67;2.10;;;;;;;10.36;100.00;98274.06;15291108;19;20358;-78
2023/05/01 23:37:31;;;;;;;2.50;2.27;;;;;;;10.28;100.00;98262.28;15286215;19;20069;-78
2023/05/01 23:42:58;;;;;;;3.35;2.30;;;;;;;10.22;100.00;98279.09;15289967;19;20486;-77
2023/05/01 23:48:23;;;;;;;2.60;2.25;;;;;;;10.16;100.00;98259.06;15298323;19;20011;-77
2023/05/01 23:53:47;;;;;;;3.95;2.20;;;;;;;10.03;100.00;98274.81;15309015;19;20015;-78
2023/05/01 23:59:14;;;;;;;2.50;2.20;;;;;;;10.00;100.00;98270.59;15304395;19;20614;-78
